createdAt,value
2022-09-21T00:01:33.123Z,98288.81
2022-09-21T00:04:02.949Z,98293.19
2022-09-21T00:06:33.775Z,98296.44
2022-09-21T00:09:05.247Z,98291.56
2022-09-21T00:11:35.119Z,98288.34
2022-09-21T00:14:07.187Z,98288.06
2022-09-21T00:16:35.916Z,98285.03
2022-09-21T00:19:04.829Z,98278.28
2022-09-21T00:21:34.722Z,98283.25
2022-09-21T00:24:04.445Z,98285.66
2022-09-21T00:26:33.498Z,98285.81
2022-09-21T00:29:03.382Z,98291.81
2022-09-21T00:31:32.645Z,98294.19
2022-09-21T00:34:03.493Z,98282.03
2022-09-21T00:36:31.444Z,98289.03
2022-09-21T00:39:01.003Z,98292.84
2022-09-21T00:41:32.424Z,98302.06
2022-09-21T00:44:26.711Z,98298.22
2022-09-21T00:46:58.545Z,98296.47
2022-09-21T00:49:28.844Z,98295.97
2022-09-21T00:51:58.847Z,98304.63
2022-09-21T00:54:29.221Z,98317.34
2022-09-21T00:57:03.323Z,98305.22
2022-09-21T00:59:35.957Z,98311.13
2022-09-21T01:02:04.759Z,98314.50
2022-09-21T01:04:33.654Z,98311.94
2022-09-21T01:07:06.358Z,98313.75
2022-09-21T01:09:35.443Z,98315.69
2022-09-21T01:12:16.579Z,98314.69
2022-09-21T01:14:58.891Z,98305.78
2022-09-21T01:17:37.768Z,98311.03
2022-09-21T01:20:25.443Z,98312.06
2022-09-21T01:23:09.445Z,98313.03
2022-09-21T01:28:57.835Z,98314.78
2022-09-21T01:31:30.743Z,98310.66
2022-09-21T01:34:06.918Z,98300.06
2022-09-21T01:36:35.970Z,98302.75
2022-09-21T01:39:09.045Z,98306.50
2022-09-21T01:41:41.332Z,98310.66
2022-09-21T01:44:14.735Z,98307.25
2022-09-21T01:46:42.808Z,98313.13
2022-09-21T01:49:14.290Z,98302.66
2022-09-21T01:51:46.787Z,98299.44
2022-09-21T01:54:20.289Z,98314.63
2022-09-21T01:56:52.057Z,98300.06
2022-09-21T01:59:27.629Z,98308.94
2022-09-21T02:01:59.815Z,98316.88
2022-09-21T02:04:28.609Z,98311.19
2022-09-21T02:06:57.240Z,98313.16
2022-09-21T02:09:25.595Z,98322.94
2022-09-21T02:11:53.848Z,98325.84
2022-09-21T02:14:25.340Z,98324.72
2022-09-21T02:17:03.483Z,98323.63
2022-09-21T02:19:41.998Z,98324.94
2022-09-21T02:22:14.646Z,98328.13
2022-09-21T02:24:45.215Z,98317.28
2022-09-21T02:27:21.378Z,98316.44
2022-09-21T02:29:55.190Z,98315.97
2022-09-21T02:32:30.394Z,98322.75
2022-09-21T02:35:04.789Z,98327.72
2022-09-21T02:37:39.912Z,98319.38
2022-09-21T02:40:14.963Z,98333.41
2022-09-21T02:42:46.546Z,98328.25
2022-09-21T02:45:22.494Z,98322.94
2022-09-21T02:47:56.765Z,98335.72
2022-09-21T02:50:32.970Z,98325.59
2022-09-21T02:53:03.034Z,98333.72
2022-09-21T02:55:32.662Z,98324.78
2022-09-21T02:58:05.762Z,98332.88
2022-09-21T03:00:35.515Z,98336.28
2022-09-21T03:03:17.125Z,98336.47
2022-09-21T03:05:46.238Z,98325.59
2022-09-21T03:08:14.230Z,98319.47
2022-09-21T03:10:41.986Z,98322.28
2022-09-21T03:13:10.153Z,98322.25
2022-09-21T03:15:40.223Z,98327.47
2022-09-21T03:18:11.627Z,98326.91
2022-09-21T03:20:41.017Z,98325.16
2022-09-21T03:23:09.625Z,98338.22
2022-09-21T03:25:38.117Z,98345.53
2022-09-21T03:28:06.519Z,98357.09
2022-09-21T03:30:35.569Z,98324.06
2022-09-21T03:33:06.505Z,98348.94
2022-09-21T03:35:34.975Z,98351.47
2022-09-21T03:38:03.446Z,98353.28
2022-09-21T03:40:31.575Z,98333.94
2022-09-21T03:42:59.741Z,98351.47
2022-09-21T03:45:28.340Z,98345.91
2022-09-21T03:47:58.285Z,98356.59
2022-09-21T03:50:29.178Z,98354.69
2022-09-21T03:52:57.644Z,98357.91
2022-09-21T03:55:26.117Z,98354.88
2022-09-21T03:57:54.040Z,98363.31
2022-09-21T04:00:22.542Z,98362.44
2022-09-21T04:02:50.534Z,98365.50
2022-09-21T04:05:19.540Z,98373.97
2022-09-21T04:07:49.410Z,98375.81
2022-09-21T04:10:19.589Z,98356.78
2022-09-21T04:12:48.561Z,98373.53
2022-09-21T04:15:19.585Z,98373.50
2022-09-21T04:17:48.701Z,98367.69
2022-09-21T04:20:16.741Z,98370.84
2022-09-21T04:22:44.871Z,98375.69
2022-09-21T04:25:15.160Z,98373.81
2022-09-21T04:27:43.325Z,98362.09
2022-09-21T04:30:14.172Z,98374.16
2022-09-21T04:32:42.197Z,98373.91
2022-09-21T04:35:11.063Z,98379.09
2022-09-21T04:37:39.166Z,98377.88
2022-09-21T04:40:09.763Z,98377.44
2022-09-21T04:42:39.445Z,98383.03
2022-09-21T04:45:08.993Z,98381.69
2022-09-21T04:47:37.674Z,98389.91
2022-09-21T04:50:06.476Z,98376.50
2022-09-21T04:52:34.748Z,98387.13
2022-09-21T04:55:02.632Z,98388.47
2022-09-21T04:57:30.906Z,98390.97
2022-09-21T05:00:00.195Z,98399.38
2022-09-21T05:02:28.064Z,98405.94
2022-09-21T05:04:56.947Z,98399.13
2022-09-21T05:07:25.073Z,98398.47
2022-09-21T05:10:04.166Z,98403.22
2022-09-21T05:12:32.604Z,98405.16
2022-09-21T05:15:02.463Z,98398.91
2022-09-21T05:17:30.512Z,98419.50
2022-09-21T05:19:58.887Z,98419.53
2022-09-21T05:22:26.769Z,98399.03
2022-09-21T05:24:56.131Z,98423.88
2022-09-21T05:27:24.023Z,98401.00
2022-09-21T05:29:53.279Z,98415.84
2022-09-21T05:32:33.686Z,98423.78
2022-09-21T05:35:13.237Z,98411.31
2022-09-21T05:41:28.366Z,98439.56
2022-09-21T05:43:57.272Z,98425.13
2022-09-21T05:46:44.529Z,98417.00
2022-09-21T05:49:20.599Z,98421.81
2022-09-21T05:51:59.448Z,98423.50
2022-09-21T05:54:40.685Z,98426.31
2022-09-21T05:57:17.513Z,98425.41
2022-09-21T05:59:56.972Z,98420.56
2022-09-21T06:02:40.181Z,98429.78
2022-09-21T06:05:12.922Z,98429.59
2022-09-21T06:07:41.645Z,98435.31
2022-09-21T06:10:10.872Z,98445.69
2022-09-21T06:12:38.586Z,98437.28
2022-09-21T06:15:12.538Z,98436.81
2022-09-21T06:17:40.561Z,98433.06
2022-09-21T06:20:11.458Z,98439.56
2022-09-21T06:22:39.426Z,98445.28
2022-09-21T06:25:08.712Z,98438.69
2022-09-21T06:27:39.552Z,98441.53
2022-09-21T06:30:08.850Z,98439.91
2022-09-21T06:32:39.500Z,98438.53
2022-09-21T06:35:11.231Z,98436.19
2022-09-21T06:37:40.174Z,98439.47
2022-09-21T06:40:09.863Z,98449.47
2022-09-21T06:42:37.606Z,98435.94
2022-09-21T06:45:06.537Z,98436.75
2022-09-21T06:47:34.234Z,98448.25
2022-09-21T06:50:02.038Z,98448.56
2022-09-21T06:52:33.757Z,98445.38
2022-09-21T06:55:01.869Z,98446.50
2022-09-21T06:57:29.566Z,98457.59
2022-09-21T06:59:57.610Z,98455.78
2022-09-21T07:02:25.443Z,98456.56
2022-09-21T07:04:53.547Z,98458.56
2022-09-21T07:07:23.606Z,98465.06
2022-09-21T07:10:15.801Z,98455.34
2022-09-21T07:12:43.988Z,98463.47
2022-09-21T07:15:13.796Z,98461.53
2022-09-21T07:17:43.044Z,98454.25
2022-09-21T07:20:11.059Z,98449.06
2022-09-21T07:22:38.924Z,98456.44
2022-09-21T07:25:08.642Z,98456.66
2022-09-21T07:27:36.305Z,98457.75
2022-09-21T07:30:05.134Z,98458.56
2022-09-21T07:32:32.866Z,98461.31
2022-09-21T07:35:01.199Z,98455.88
2022-09-21T07:37:29.482Z,98464.25
2022-09-21T07:39:57.968Z,98465.06
2022-09-21T07:42:30.218Z,98456.94
2022-09-21T07:45:04.863Z,98461.53
2022-09-21T07:47:33.104Z,98462.38
2022-09-21T07:50:01.397Z,98466.09
2022-09-21T07:52:29.356Z,98455.59
2022-09-21T07:55:00.272Z,98461.09
2022-09-21T07:57:47.536Z,98457.28
2022-09-21T08:00:15.927Z,98464.50
2022-09-21T08:02:47.490Z,98458.09
2022-09-21T08:05:15.996Z,98447.03
2022-09-21T08:07:43.733Z,98449.69
2022-09-21T08:10:11.793Z,98447.25
2022-09-21T08:12:40.848Z,98449.34
2022-09-21T08:15:25.045Z,98458.19
2022-09-21T08:17:58.673Z,98459.34
2022-09-21T08:20:26.438Z,98452.13
2022-09-21T08:22:56.801Z,98468.03
2022-09-21T08:25:24.825Z,98457.97
2022-09-21T08:27:58.821Z,98462.13
2022-09-21T08:30:27.985Z,98462.88
2022-09-21T08:32:56.219Z,98471.81
2022-09-21T08:35:23.961Z,98469.41
2022-09-21T08:37:54.816Z,98465.09
2022-09-21T08:40:23.040Z,98462.38
2022-09-21T08:43:00.061Z,98470.34
2022-09-21T08:45:35.114Z,98468.38
2022-09-21T08:48:06.809Z,98468.88
2022-09-21T08:50:39.135Z,98457.66
2022-09-21T08:53:11.746Z,98467.63
2022-09-21T08:55:39.545Z,98468.44
2022-09-21T08:58:22.345Z,98471.66
2022-09-21T09:01:02.497Z,98474.00
2022-09-21T09:03:56.018Z,98472.94
2022-09-21T09:06:31.717Z,98463.53
2022-09-21T09:09:20.196Z,98459.50
2022-09-21T09:12:11.057Z,98444.69
2022-09-21T09:14:57.295Z,98445.84
2022-09-21T09:17:40.027Z,98456.09
2022-09-21T09:20:12.845Z,98450.38
2022-09-21T09:22:46.919Z,98456.03
2022-09-21T09:25:22.250Z,98462.44
2022-09-21T09:27:53.944Z,98449.88
2022-09-21T09:30:26.092Z,98446.19
2022-09-21T09:33:00.028Z,98451.84
2022-09-21T09:35:31.176Z,98447.78
2022-09-21T09:38:05.957Z,98443.78
2022-09-21T09:41:03.532Z,98439.03
2022-09-21T09:43:46.880Z,98436.69
2022-09-21T09:46:22.944Z,98442.06
2022-09-21T09:49:13.950Z,98429.88
2022-09-21T09:51:44.382Z,98444.06
2022-09-21T09:54:16.267Z,98439.84
2022-09-21T09:56:44.203Z,98441.03
2022-09-21T09:59:20.864Z,98439.44
2022-09-21T10:02:02.525Z,98436.94
2022-09-21T10:04:30.807Z,98439.81
2022-09-21T10:06:58.437Z,98433.56
2022-09-21T10:09:28.793Z,98432.47
2022-09-21T10:12:01.063Z,98431.00
2022-09-21T10:14:34.530Z,98433.34
2022-09-21T10:17:08.257Z,98426.00
2022-09-21T10:19:38.444Z,98422.31
2022-09-21T10:22:06.793Z,98422.00
2022-09-21T10:24:38.446Z,98418.19
2022-09-21T10:27:10.340Z,98418.41
2022-09-21T10:29:43.488Z,98421.41
2022-09-21T10:32:24.351Z,98423.34
2022-09-21T10:35:04.656Z,98411.38
2022-09-21T10:37:34.811Z,98407.06
2022-09-21T10:40:03.117Z,98408.75
2022-09-21T10:42:36.280Z,98399.94
2022-09-21T10:45:16.532Z,98399.25
2022-09-21T10:47:48.591Z,98404.28
2022-09-21T10:50:26.763Z,98400.97
2022-09-21T10:53:00.613Z,98398.69
2022-09-21T10:55:30.935Z,98401.16
2022-09-21T10:57:59.004Z,98412.94
2022-09-21T11:00:41.632Z,98400.50
2022-09-21T11:03:45.073Z,98394.56
2022-09-21T11:06:25.744Z,98408.44
2022-09-21T11:08:57.446Z,98400.22
2022-09-21T11:11:43.705Z,98393.19
2022-09-21T11:14:20.746Z,98395.94
2022-09-21T11:16:56.835Z,98391.53
2022-09-21T11:19:32.527Z,98390.31
2022-09-21T11:22:09.394Z,98391.13
2022-09-21T11:24:46.394Z,98390.53
2022-09-21T11:27:18.875Z,98384.94
2022-09-21T11:29:56.416Z,98394.13
2022-09-21T11:32:37.068Z,98375.59
2022-09-21T11:35:24.562Z,98380.22
2022-09-21T11:38:05.228Z,98384.22
2022-09-21T11:40:47.475Z,98387.50
2022-09-21T11:43:27.966Z,98376.44
2022-09-21T11:46:02.762Z,98375.38
2022-09-21T11:48:45.373Z,98374.78
2022-09-21T11:51:28.605Z,98371.41
2022-09-21T11:54:31.960Z,98370.75
2022-09-21T11:57:08.231Z,98368.25
2022-09-21T11:59:51.117Z,98362.13
2022-09-21T12:02:52.011Z,98366.69
2022-09-21T12:05:25.622Z,98354.47
2022-09-21T12:08:20.527Z,98357.97
2022-09-21T12:11:03.468Z,98349.53
2022-09-21T12:13:42.147Z,98358.31
2022-09-21T12:16:18.021Z,98360.78
2022-09-21T12:18:54.736Z,98349.13
2022-09-21T12:21:25.240Z,98348.06
2022-09-21T12:23:56.630Z,98350.56
2022-09-21T12:26:29.018Z,98359.44
2022-09-21T12:29:01.781Z,98338.47
2022-09-21T12:31:36.667Z,98351.63
2022-09-21T12:34:11.165Z,98355.38
2022-09-21T12:36:44.376Z,98349.19
2022-09-21T12:39:19.716Z,98346.69
2022-09-21T12:41:55.055Z,98338.47
2022-09-21T12:44:29.872Z,98340.53
2022-09-21T12:47:09.380Z,98344.03
2022-09-21T12:49:42.976Z,98335.22
2022-09-21T12:52:22.747Z,98346.25
2022-09-21T12:54:58.730Z,98345.59
2022-09-21T12:57:58.849Z,98338.69
2022-09-21T13:00:39.872Z,98352.34
2022-09-21T13:03:15.439Z,98340.94
2022-09-21T13:05:54.815Z,98334.66
2022-09-21T13:08:28.747Z,98345.47
2022-09-21T13:11:05.054Z,98343.88
2022-09-21T13:13:36.263Z,98345.59
2022-09-21T13:16:05.624Z,98334.81
2022-09-21T13:18:36.664Z,98338.84
2022-09-21T13:21:17.823Z,98337.31
2022-09-21T13:23:53.700Z,98338.28
2022-09-21T13:26:36.219Z,98333.28
2022-09-21T13:29:30.769Z,98331.97
2022-09-21T13:32:00.853Z,98331.47
2022-09-21T13:34:34.493Z,98323.78
2022-09-21T13:37:36.048Z,98318.00
2022-09-21T13:40:40.518Z,98324.69
2022-09-21T13:43:20.594Z,98318.97
2022-09-21T13:45:56.012Z,98311.75
2022-09-21T13:48:29.553Z,98314.75
2022-09-21T13:51:00.037Z,98314.34
2022-09-21T13:53:34.183Z,98312.88
2022-09-21T13:56:08.687Z,98321.88
2022-09-21T13:58:42.005Z,98322.69
2022-09-21T14:01:42.385Z,98316.31
2022-09-21T14:04:20.105Z,98312.88
2022-09-21T14:06:52.674Z,98316.09
2022-09-21T14:09:25.045Z,98319.78
2022-09-21T14:12:00.204Z,98317.03
2022-09-21T14:14:32.744Z,98310.72
2022-09-21T14:17:02.794Z,98312.69
2022-09-21T14:20:04.636Z,98305.63
2022-09-21T14:26:33.992Z,98302.22
2022-09-21T14:29:09.636Z,98309.03
2022-09-21T14:31:39.919Z,98296.59
2022-09-21T14:34:15.393Z,98303.13
2022-09-21T14:36:47.355Z,98299.66
2022-09-21T14:39:18.503Z,98295.34
2022-09-21T14:41:51.349Z,98298.03
2022-09-21T14:44:21.901Z,98296.44
2022-09-21T14:47:25.368Z,98294.88
2022-09-21T14:50:15.454Z,98292.47
2022-09-21T14:53:01.033Z,98286.34
2022-09-21T14:55:41.841Z,98282.31
2022-09-21T14:58:27.492Z,98283.88
2022-09-21T15:00:55.845Z,98282.28
2022-09-21T15:03:40.025Z,98286.47
2022-09-21T15:06:38.067Z,98275.84
2022-09-21T15:09:44.360Z,98276.84
2022-09-21T15:12:19.182Z,98277.31
2022-09-21T15:14:52.511Z,98271.53
2022-09-21T15:17:26.300Z,98264.13
2022-09-21T15:19:59.114Z,98269.53
2022-09-21T15:22:29.383Z,98267.91
2022-09-21T15:24:59.184Z,98260.50
2022-09-21T15:27:33.385Z,98261.72
2022-09-21T15:30:05.237Z,98245.38
2022-09-21T15:32:37.920Z,98263.06
2022-09-21T15:35:08.469Z,98260.50
2022-09-21T15:37:39.588Z,98260.66
2022-09-21T15:40:17.385Z,98260.22
2022-09-21T15:43:00.990Z,98256.34
2022-09-21T15:45:31.842Z,98253.03
2022-09-21T15:47:59.493Z,98254.16
2022-09-21T15:50:30.430Z,98252.69
2022-09-21T15:53:05.005Z,98254.78
2022-09-21T15:55:33.936Z,98253.31
2022-09-21T15:58:04.295Z,98253.44
2022-09-21T16:00:35.806Z,98251.84
2022-09-21T16:03:06.829Z,98251.03
2022-09-21T16:05:45.373Z,98246.22
2022-09-21T16:08:27.323Z,98258.72
2022-09-21T16:11:13.140Z,98256.06
2022-09-21T16:13:58.733Z,98249.94
2022-09-21T16:16:27.159Z,98255.31
2022-09-21T16:18:56.362Z,98246.06
2022-09-21T16:21:26.629Z,98259.06
2022-09-21T16:23:58.172Z,98259.84
2022-09-21T16:26:28.649Z,98258.97
2022-09-21T16:29:18.710Z,98256.59
2022-09-21T16:31:50.285Z,98258.16
2022-09-21T16:34:22.764Z,98265.94
2022-09-21T16:36:52.884Z,98265.78
2022-09-21T16:39:22.698Z,98270.91
2022-09-21T16:41:53.997Z,98273.69
2022-09-21T16:44:25.505Z,98273.41
2022-09-21T16:46:56.069Z,98270.38
2022-09-21T16:49:30.034Z,98265.50
2022-09-21T16:51:59.237Z,98271.72
2022-09-21T16:54:28.965Z,98266.69
2022-09-21T16:56:58.759Z,98269.03
2022-09-21T16:59:27.543Z,98268.63
2022-09-21T17:01:57.123Z,98275.00
2022-09-21T17:04:27.276Z,98279.66
2022-09-21T17:06:56.307Z,98280.13
2022-09-21T17:09:29.413Z,98276.41
2022-09-21T17:12:01.161Z,98278.63
2022-09-21T17:14:34.956Z,98280.97
2022-09-21T17:17:06.054Z,98285.88
2022-09-21T17:19:34.743Z,98276.13
2022-09-21T17:22:04.236Z,98276.81
2022-09-21T17:24:49.144Z,98283.25
2022-09-21T17:27:21.864Z,98284.03
2022-09-21T17:29:50.653Z,98264.94
2022-09-21T17:32:21.426Z,98281.06
2022-09-21T17:34:53.204Z,98279.94
2022-09-21T17:37:22.125Z,98278.88
2022-09-21T17:39:50.051Z,98272.47
2022-09-21T17:42:22.081Z,98281.22
2022-09-21T17:44:59.637Z,98282.25
2022-09-21T17:47:29.602Z,98285.06
2022-09-21T17:50:02.919Z,98294.44
2022-09-21T17:52:48.809Z,98291.03
2022-09-21T17:55:17.231Z,98296.00
2022-09-21T17:57:59.376Z,98306.50
2022-09-21T18:00:50.507Z,98301.97
2022-09-21T18:03:22.366Z,98304.97
2022-09-21T18:05:51.845Z,98308.72
2022-09-21T18:08:20.067Z,98305.25
2022-09-21T18:10:58.818Z,98305.44
2022-09-21T18:13:38.825Z,98312.28
2022-09-21T18:16:21.932Z,98307.38
2022-09-21T18:18:59.340Z,98303.78
2022-09-21T18:21:28.062Z,98313.06
2022-09-21T18:24:19.352Z,98311.47
2022-09-21T18:26:48.290Z,98308.16
2022-09-21T18:29:40.305Z,98314.13
2022-09-21T18:32:32.549Z,98312.72
2022-09-21T18:35:28.861Z,98323.81
2022-09-21T18:38:18.211Z,98320.94
2022-09-21T18:40:59.522Z,98324.56
2022-09-21T18:43:34.920Z,98325.66
2022-09-21T18:46:06.863Z,98322.75
2022-09-21T18:48:52.773Z,98326.56
2022-09-21T18:51:28.911Z,98327.91
2022-09-21T18:53:57.989Z,98333.44
2022-09-21T18:56:28.084Z,98331.66
2022-09-21T18:58:57.179Z,98334.41
2022-09-21T19:01:29.962Z,98331.97
2022-09-21T19:03:58.298Z,98323.34
2022-09-21T19:06:40.514Z,98318.25
2022-09-21T19:09:18.636Z,98333.13
2022-09-21T19:11:54.052Z,98322.03
2022-09-21T19:14:28.275Z,98334.22
2022-09-21T19:17:10.655Z,98333.44
2022-09-21T19:19:49.644Z,98330.72
2022-09-21T19:22:27.640Z,98326.69
2022-09-21T19:25:04.048Z,98336.69
2022-09-21T19:27:40.479Z,98337.00
2022-09-21T19:30:11.965Z,98338.59
2022-09-21T19:32:45.867Z,98339.38
2022-09-21T19:35:18.939Z,98338.34
2022-09-21T19:37:47.733Z,98342.63
2022-09-21T19:40:16.685Z,98337.00
2022-09-21T19:43:04.252Z,98339.13
2022-09-21T19:45:42.578Z,98335.38
2022-09-21T19:48:14.881Z,98338.31
2022-09-21T19:50:48.288Z,98335.91
2022-09-21T19:53:34.517Z,98331.88
2022-09-21T19:56:20.783Z,98330.78
2022-09-21T19:59:17.477Z,98327.25
2022-09-21T20:01:52.782Z,98327.53
2022-09-21T20:04:28.404Z,98321.88
2022-09-21T20:07:03.509Z,98337.47
2022-09-21T20:09:38.033Z,98333.44
2022-09-21T20:12:16.069Z,98334.78
2022-09-21T20:14:48.800Z,98342.06
2022-09-21T20:17:22.132Z,98341.81
2022-09-21T20:19:57.948Z,98345.28
2022-09-21T20:22:34.675Z,98341.22
2022-09-21T20:25:10.589Z,98347.72
2022-09-21T20:27:41.512Z,98351.13
2022-09-21T20:30:12.838Z,98349.75
2022-09-21T20:32:44.508Z,98348.94
2022-09-21T20:35:17.427Z,98340.66
2022-09-21T20:37:45.742Z,98345.19
2022-09-21T20:40:14.657Z,98343.84
2022-09-21T20:42:43.682Z,98344.63
2022-09-21T20:45:13.330Z,98349.75
2022-09-21T20:47:41.300Z,98345.41
2022-09-21T20:50:12.704Z,98347.59
2022-09-21T20:52:43.050Z,98347.53
2022-09-21T20:55:13.847Z,98345.66
2022-09-21T20:57:42.185Z,98350.47
2022-09-21T21:00:12.562Z,98353.44
2022-09-21T21:02:40.809Z,98352.06
2022-09-21T21:05:10.357Z,98356.03
2022-09-21T21:07:38.549Z,98355.50
2022-09-21T21:10:08.131Z,98345.84
2022-09-21T21:12:36.134Z,98351.16
2022-09-21T21:15:03.846Z,98345.84
2022-09-21T21:17:31.805Z,98354.19
2022-09-21T21:19:59.469Z,98349.53
2022-09-21T21:22:27.400Z,98357.84
2022-09-21T21:24:55.029Z,98355.09
2022-09-21T21:27:25.717Z,98351.34
2022-09-21T21:29:55.311Z,98347.63
2022-09-21T21:32:25.517Z,98356.38
2022-09-21T21:34:54.395Z,98341.19
2022-09-21T21:37:24.793Z,98355.38
2022-09-21T21:39:53.127Z,98350.53
2022-09-21T21:42:22.016Z,98346.66
2022-09-21T21:44:51.400Z,98351.78
2022-09-21T21:50:07.778Z,98340.94
2022-09-21T21:52:35.755Z,98342.88
2022-09-21T21:55:03.493Z,98343.63
2022-09-21T21:57:31.149Z,98348.50
2022-09-21T22:00:00.177Z,98338.81
2022-09-21T22:02:28.638Z,98346.78
2022-09-21T22:04:56.306Z,98334.34
2022-09-21T22:07:24.357Z,98335.00
2022-09-21T22:09:52.013Z,98340.66
2022-09-21T22:12:20.319Z,98334.66
2022-09-21T22:14:47.902Z,98336.22
2022-09-21T22:17:17.229Z,98335.88
2022-09-21T22:19:45.527Z,98340.16
2022-09-21T22:22:13.525Z,98333.94
2022-09-21T22:24:41.160Z,98327.16
2022-09-21T22:27:08.943Z,98334.72
2022-09-21T22:29:36.594Z,98337.88
2022-09-21T22:32:04.680Z,98342.22
2022-09-21T22:34:33.761Z,98336.94
2022-09-21T22:37:01.741Z,98337.22
2022-09-21T22:39:29.392Z,98330.56
2022-09-21T22:41:57.124Z,98329.91
2022-09-21T22:44:24.759Z,98321.69
2022-09-21T22:46:52.725Z,98319.25
2022-09-21T22:49:20.369Z,98318.72
2022-09-21T22:51:49.671Z,98319.91
2022-09-21T22:54:17.363Z,98311.50
2022-09-21T22:56:45.346Z,98313.84
2022-09-21T22:59:12.972Z,98311.47
2022-09-21T23:01:41.865Z,98304.63
2022-09-21T23:04:11.388Z,98309.03
2022-09-21T23:06:42.168Z,98310.56
2022-09-21T23:09:14.721Z,98313.25
2022-09-21T23:11:47.445Z,98304.25
2022-09-21T23:14:16.689Z,98306.81
2022-09-21T23:16:45.017Z,98311.31
2022-09-21T23:19:16.250Z,98311.03
2022-09-21T23:21:46.350Z,98309.41
2022-09-21T23:24:15.309Z,98311.44
2022-09-21T23:26:43.671Z,98300.81
2022-09-21T23:29:12.946Z,98304.22
2022-09-21T23:31:45.005Z,98310.66
2022-09-21T23:34:13.482Z,98311.91
2022-09-21T23:36:42.603Z,98309.91
2022-09-21T23:39:11.688Z,98318.13
2022-09-21T23:41:41.516Z,98316.91
2022-09-21T23:44:09.588Z,98317.31
2022-09-21T23:46:39.766Z,98314.63
2022-09-21T23:49:07.922Z,98315.53
2022-09-21T23:51:36.679Z,98309.25
2022-09-21T23:54:05.059Z,98325.28
2022-09-21T23:56:33.706Z,98317.09
2022-09-21T23:59:03.134Z,98318.69
